sensor_id;sensor_type;location;lat;lon;timestamp;temperature;humidity
43009;DHT22;28634;45.454;11.106;2022-09-03T00:11:26;25.50;49.30
43009;DHT22;28634;45.454;11.106;2022-09-03T00:14:09;25.40;49.40
43009;DHT22;28634;45.454;11.106;2022-09-03T00:16:55;25.40;49.20
43009;DHT22;28634;45.454;11.106;2022-09-03T00:19:31;25.50;50.20
43009;DHT22;28634;45.454;11.106;2022-09-03T00:22:03;25.40;50.30
43009;DHT22;28634;45.454;11.106;2022-09-03T00:24:35;25.30;50.20
43009;DHT22;28634;45.454;11.106;2022-09-03T00:27:12;25.20;50.00
43009;DHT22;28634;45.454;11.106;2022-09-03T00:29:48;25.20;50.00
43009;DHT22;28634;45.454;11.106;2022-09-03T00:32:46;25.20;49.70
43009;DHT22;28634;45.454;11.106;2022-09-03T00:35:31;25.20;49.90
43009;DHT22;28634;45.454;11.106;2022-09-03T00:37:59;25.20;49.60
43009;DHT22;28634;45.454;11.106;2022-09-03T00:43:33;25.20;50.30
43009;DHT22;28634;45.454;11.106;2022-09-03T00:51:56;25.10;50.20
43009;DHT22;28634;45.454;11.106;2022-09-03T00:57:57;25.00;50.40
43009;DHT22;28634;45.454;11.106;2022-09-03T01:00:29;25.00;50.40
43009;DHT22;28634;45.454;11.106;2022-09-03T01:03:09;24.90;51.50
43009;DHT22;28634;45.454;11.106;2022-09-03T01:11:29;24.90;51.10
43009;DHT22;28634;45.454;11.106;2022-09-03T01:17:05;24.90;50.50
43009;DHT22;28634;45.454;11.106;2022-09-03T01:25:35;25.10;51.00
43009;DHT22;28634;45.454;11.106;2022-09-03T01:28:08;25.20;51.40
43009;DHT22;28634;45.454;11.106;2022-09-03T01:30:42;25.10;51.90
43009;DHT22;28634;45.454;11.106;2022-09-03T01:33:34;25.00;51.60
43009;DHT22;28634;45.454;11.106;2022-09-03T01:36:22;24.90;51.80
43009;DHT22;28634;45.454;11.106;2022-09-03T01:38:57;24.90;51.80
43009;DHT22;28634;45.454;11.106;2022-09-03T01:53:06;25.10;51.60
43009;DHT22;28634;45.454;11.106;2022-09-03T01:56:21;25.10;51.90
43009;DHT22;28634;45.454;11.106;2022-09-03T01:59:12;25.10;51.80
43009;DHT22;28634;45.454;11.106;2022-09-03T02:02:21;24.90;51.90
43009;DHT22;28634;45.454;11.106;2022-09-03T02:05:36;24.70;52.10
43009;DHT22;28634;45.454;11.106;2022-09-03T02:08:01;24.70;52.30
43009;DHT22;28634;45.454;11.106;2022-09-03T02:10:30;24.80;52.10
43009;DHT22;28634;45.454;11.106;2022-09-03T02:13:06;24.90;51.40
43009;DHT22;28634;45.454;11.106;2022-09-03T02:15:39;25.00;50.60
43009;DHT22;28634;45.454;11.106;2022-09-03T02:18:14;24.80;51.90
43009;DHT22;28634;45.454;11.106;2022-09-03T02:20:43;24.70;52.70
43009;DHT22;28634;45.454;11.106;2022-09-03T02:23:10;24.60;53.20
43009;DHT22;28634;45.454;11.106;2022-09-03T02:25:40;24.50;53.00
43009;DHT22;28634;45.454;11.106;2022-09-03T02:28:09;24.50;52.40
43009;DHT22;28634;45.454;11.106;2022-09-03T02:30:53;24.60;51.40
43009;DHT22;28634;45.454;11.106;2022-09-03T02:33:20;24.60;51.50
43009;DHT22;28634;45.454;11.106;2022-09-03T02:35:48;24.60;52.00
43009;DHT22;28634;45.454;11.106;2022-09-03T02:38:19;24.50;52.00
43009;DHT22;28634;45.454;11.106;2022-09-03T02:40:47;24.60;51.80
43009;DHT22;28634;45.454;11.106;2022-09-03T02:46:11;24.60;52.50
43009;DHT22;28634;45.454;11.106;2022-09-03T02:48:39;24.60;52.40
43009;DHT22;28634;45.454;11.106;2022-09-03T02:51:07;24.60;52.40
43009;DHT22;28634;45.454;11.106;2022-09-03T02:53:41;24.60;51.90
43009;DHT22;28634;45.454;11.106;2022-09-03T02:56:08;24.60;51.60
43009;DHT22;28634;45.454;11.106;2022-09-03T02:58:36;24.60;51.50
43009;DHT22;28634;45.454;11.106;2022-09-03T03:01:03;24.60;51.50
43009;DHT22;28634;45.454;11.106;2022-09-03T03:03:30;24.60;51.40
43009;DHT22;28634;45.454;11.106;2022-09-03T03:06:00;24.60;51.30
43009;DHT22;28634;45.454;11.106;2022-09-03T03:08:28;24.60;51.40
43009;DHT22;28634;45.454;11.106;2022-09-03T03:10:57;24.50;52.10
43009;DHT22;28634;45.454;11.106;2022-09-03T03:13:25;24.50;52.20
43009;DHT22;28634;45.454;11.106;2022-09-03T03:15:56;24.40;52.50
43009;DHT22;28634;45.454;11.106;2022-09-03T03:18:26;24.40;52.40
43009;DHT22;28634;45.454;11.106;2022-09-03T03:20:56;24.40;52.70
43009;DHT22;28634;45.454;11.106;2022-09-03T03:23:23;24.40;52.70
43009;DHT22;28634;45.454;11.106;2022-09-03T03:25:50;24.40;52.50
43009;DHT22;28634;45.454;11.106;2022-09-03T03:28:17;24.40;52.90
43009;DHT22;28634;45.454;11.106;2022-09-03T03:30:46;24.40;53.70
43009;DHT22;28634;45.454;11.106;2022-09-03T03:33:14;24.30;53.60
43009;DHT22;28634;45.454;11.106;2022-09-03T03:35:41;24.30;53.70
43009;DHT22;28634;45.454;11.106;2022-09-03T03:38:09;24.30;53.70
43009;DHT22;28634;45.454;11.106;2022-09-03T03:40:39;24.30;53.60
43009;DHT22;28634;45.454;11.106;2022-09-03T03:43:06;24.20;53.50
43009;DHT22;28634;45.454;11.106;2022-09-03T03:45:33;24.20;53.80
43009;DHT22;28634;45.454;11.106;2022-09-03T03:48:00;24.20;53.60
43009;DHT22;28634;45.454;11.106;2022-09-03T03:50:27;24.30;53.40
43009;DHT22;28634;45.454;11.106;2022-09-03T03:52:58;24.30;53.20
43009;DHT22;28634;45.454;11.106;2022-09-03T03:55:27;24.30;53.10
43009;DHT22;28634;45.454;11.106;2022-09-03T03:58:00;24.30;52.90
43009;DHT22;28634;45.454;11.106;2022-09-03T04:00:28;24.30;52.80
43009;DHT22;28634;45.454;11.106;2022-09-03T04:02:55;24.40;52.80
43009;DHT22;28634;45.454;11.106;2022-09-03T04:05:22;24.40;52.80
43009;DHT22;28634;45.454;11.106;2022-09-03T04:07:49;24.50;52.60
43009;DHT22;28634;45.454;11.106;2022-09-03T04:10:16;24.50;52.40
43009;DHT22;28634;45.454;11.106;2022-09-03T04:12:43;24.50;52.30
43009;DHT22;28634;45.454;11.106;2022-09-03T04:15:10;24.50;52.30
43009;DHT22;28634;45.454;11.106;2022-09-03T04:17:37;24.60;51.90
43009;DHT22;28634;45.454;11.106;2022-09-03T04:20:05;24.60;51.90
43009;DHT22;28634;45.454;11.106;2022-09-03T04:22:32;24.60;51.90
43009;DHT22;28634;45.454;11.106;2022-09-03T04:25:03;24.50;52.70
43009;DHT22;28634;45.454;11.106;2022-09-03T04:27:30;24.40;53.00
43009;DHT22;28634;45.454;11.106;2022-09-03T04:29:57;24.30;53.30
43009;DHT22;28634;45.454;11.106;2022-09-03T04:32:24;24.20;52.80
43009;DHT22;28634;45.454;11.106;2022-09-03T04:35:10;24.20;53.10
43009;DHT22;28634;45.454;11.106;2022-09-03T04:37:37;24.20;53.20
43009;DHT22;28634;45.454;11.106;2022-09-03T04:40:05;24.30;53.30
43009;DHT22;28634;45.454;11.106;2022-09-03T04:42:32;24.30;53.10
43009;DHT22;28634;45.454;11.106;2022-09-03T04:45:00;24.30;53.30
43009;DHT22;28634;45.454;11.106;2022-09-03T04:47:27;24.20;53.30
43009;DHT22;28634;45.454;11.106;2022-09-03T04:49:54;24.20;53.40
43009;DHT22;28634;45.454;11.106;2022-09-03T04:52:21;24.20;53.50
43009;DHT22;28634;45.454;11.106;2022-09-03T04:54:49;24.20;53.40
43009;DHT22;28634;45.454;11.106;2022-09-03T04:57:16;24.10;53.90
43009;DHT22;28634;45.454;11.106;2022-09-03T04:59:43;24.00;54.00
43009;DHT22;28634;45.454;11.106;2022-09-03T05:02:11;24.00;54.00
43009;DHT22;28634;45.454;11.106;2022-09-03T05:04:38;24.00;54.00
43009;DHT22;28634;45.454;11.106;2022-09-03T05:07:05;24.00;53.80
43009;DHT22;28634;45.454;11.106;2022-09-03T05:09:33;23.90;53.20
43009;DHT22;28634;45.454;11.106;2022-09-03T05:12:00;23.80;52.60
43009;DHT22;28634;45.454;11.106;2022-09-03T05:14:27;23.90;53.30
43009;DHT22;28634;45.454;11.106;2022-09-03T05:16:54;23.90;53.60
43009;DHT22;28634;45.454;11.106;2022-09-03T05:19:21;23.90;54.00
43009;DHT22;28634;45.454;11.106;2022-09-03T05:21:49;23.80;54.00
43009;DHT22;28634;45.454;11.106;2022-09-03T05:24:16;23.80;53.80
43009;DHT22;28634;45.454;11.106;2022-09-03T05:26:43;23.90;52.70
43009;DHT22;28634;45.454;11.106;2022-09-03T05:29:10;23.90;52.60
43009;DHT22;28634;45.454;11.106;2022-09-03T05:31:38;24.10;52.50
43009;DHT22;28634;45.454;11.106;2022-09-03T05:34:06;24.20;53.00
43009;DHT22;28634;45.454;11.106;2022-09-03T05:36:35;24.20;52.80
43009;DHT22;28634;45.454;11.106;2022-09-03T05:39:04;24.20;53.20
43009;DHT22;28634;45.454;11.106;2022-09-03T05:41:31;24.20;52.80
43009;DHT22;28634;45.454;11.106;2022-09-03T05:44:00;24.20;52.80
43009;DHT22;28634;45.454;11.106;2022-09-03T05:46:32;24.20;53.20
43009;DHT22;28634;45.454;11.106;2022-09-03T05:49:06;24.20;53.40
43009;DHT22;28634;45.454;11.106;2022-09-03T05:51:35;24.30;53.70
43009;DHT22;28634;45.454;11.106;2022-09-03T05:54:02;24.30;53.80
43009;DHT22;28634;45.454;11.106;2022-09-03T05:56:31;24.30;53.60
43009;DHT22;28634;45.454;11.106;2022-09-03T05:58:59;24.30;53.50
43009;DHT22;28634;45.454;11.106;2022-09-03T06:01:32;24.30;53.50
43009;DHT22;28634;45.454;11.106;2022-09-03T06:04:05;24.40;53.30
43009;DHT22;28634;45.454;11.106;2022-09-03T06:06:34;24.40;53.30
43009;DHT22;28634;45.454;11.106;2022-09-03T06:09:10;24.40;53.20
43009;DHT22;28634;45.454;11.106;2022-09-03T06:11:38;24.50;52.90
43009;DHT22;28634;45.454;11.106;2022-09-03T06:14:08;24.50;52.80
43009;DHT22;28634;45.454;11.106;2022-09-03T06:16:37;24.60;52.50
43009;DHT22;28634;45.454;11.106;2022-09-03T06:19:05;24.70;52.30
43009;DHT22;28634;45.454;11.106;2022-09-03T06:21:39;24.70;52.20
43009;DHT22;28634;45.454;11.106;2022-09-03T06:24:19;24.70;52.20
43009;DHT22;28634;45.454;11.106;2022-09-03T06:26:54;24.80;52.10
43009;DHT22;28634;45.454;11.106;2022-09-03T06:29:22;24.90;52.50
43009;DHT22;28634;45.454;11.106;2022-09-03T06:31:49;25.00;51.40
43009;DHT22;28634;45.454;11.106;2022-09-03T06:34:17;25.10;49.50
43009;DHT22;28634;45.454;11.106;2022-09-03T06:36:44;25.20;48.70
43009;DHT22;28634;45.454;11.106;2022-09-03T06:39:11;25.30;48.50
43009;DHT22;28634;45.454;11.106;2022-09-03T06:41:38;25.40;48.30
43009;DHT22;28634;45.454;11.106;2022-09-03T06:44:07;25.50;47.50
43009;DHT22;28634;45.454;11.106;2022-09-03T06:46:39;25.70;46.90
43009;DHT22;28634;45.454;11.106;2022-09-03T06:49:09;25.70;47.30
43009;DHT22;28634;45.454;11.106;2022-09-03T06:51:37;25.70;47.10
43009;DHT22;28634;45.454;11.106;2022-09-03T06:54:06;25.70;49.00
43009;DHT22;28634;45.454;11.106;2022-09-03T06:56:34;25.70;49.90
43009;DHT22;28634;45.454;11.106;2022-09-03T06:59:15;25.60;50.40
43009;DHT22;28634;45.454;11.106;2022-09-03T07:01:43;25.50;50.80
43009;DHT22;28634;45.454;11.106;2022-09-03T07:04:13;25.50;51.40
43009;DHT22;28634;45.454;11.106;2022-09-03T07:06:45;25.40;50.40
43009;DHT22;28634;45.454;11.106;2022-09-03T07:09:13;25.40;50.20
43009;DHT22;28634;45.454;11.106;2022-09-03T07:11:42;25.40;50.30
43009;DHT22;28634;45.454;11.106;2022-09-03T07:14:15;25.50;50.40
43009;DHT22;28634;45.454;11.106;2022-09-03T07:16:42;25.60;51.20
43009;DHT22;28634;45.454;11.106;2022-09-03T07:19:09;25.60;50.70
43009;DHT22;28634;45.454;11.106;2022-09-03T07:21:39;25.70;50.70
43009;DHT22;28634;45.454;11.106;2022-09-03T07:24:13;25.70;51.00
43009;DHT22;28634;45.454;11.106;2022-09-03T07:26:41;25.80;50.60
43009;DHT22;28634;45.454;11.106;2022-09-03T07:29:16;25.70;49.40
43009;DHT22;28634;45.454;11.106;2022-09-03T07:31:47;25.70;49.80
43009;DHT22;28634;45.454;11.106;2022-09-03T07:34:18;25.80;49.40
43009;DHT22;28634;45.454;11.106;2022-09-03T07:36:47;25.90;48.90
43009;DHT22;28634;45.454;11.106;2022-09-03T07:39:17;26.00;49.40
43009;DHT22;28634;45.454;11.106;2022-09-03T07:41:45;26.00;48.80
43009;DHT22;28634;45.454;11.106;2022-09-03T07:44:14;26.10;49.00
43009;DHT22;28634;45.454;11.106;2022-09-03T07:46:42;26.20;47.70
43009;DHT22;28634;45.454;11.106;2022-09-03T07:49:11;26.20;47.80
43009;DHT22;28634;45.454;11.106;2022-09-03T07:51:38;26.30;48.10
43009;DHT22;28634;45.454;11.106;2022-09-03T07:54:07;26.30;47.40
43009;DHT22;28634;45.454;11.106;2022-09-03T07:56:38;26.40;46.50
43009;DHT22;28634;45.454;11.106;2022-09-03T07:59:06;26.40;46.00
43009;DHT22;28634;45.454;11.106;2022-09-03T08:01:34;26.60;46.40
43009;DHT22;28634;45.454;11.106;2022-09-03T08:04:02;26.60;46.00
43009;DHT22;28634;45.454;11.106;2022-09-03T08:06:35;26.70;46.10
43009;DHT22;28634;45.454;11.106;2022-09-03T08:09:06;26.70;45.40
43009;DHT22;28634;45.454;11.106;2022-09-03T08:11:36;26.70;45.40
43009;DHT22;28634;45.454;11.106;2022-09-03T08:14:06;26.70;45.30
43009;DHT22;28634;45.454;11.106;2022-09-03T08:16:36;26.70;45.50
43009;DHT22;28634;45.454;11.106;2022-09-03T08:19:04;26.70;45.00
43009;DHT22;28634;45.454;11.106;2022-09-03T08:21:31;26.80;45.70
43009;DHT22;28634;45.454;11.106;2022-09-03T08:23:58;26.80;45.00
43009;DHT22;28634;45.454;11.106;2022-09-03T08:26:34;26.90;44.60
43009;DHT22;28634;45.454;11.106;2022-09-03T08:29:01;26.90;44.20
43009;DHT22;28634;45.454;11.106;2022-09-03T08:31:29;26.90;44.00
43009;DHT22;28634;45.454;11.106;2022-09-03T08:33:58;26.90;44.60
43009;DHT22;28634;45.454;11.106;2022-09-03T08:36:29;27.00;45.20
43009;DHT22;28634;45.454;11.106;2022-09-03T08:38:58;27.00;44.80
43009;DHT22;28634;45.454;11.106;2022-09-03T08:44:27;27.10;43.60
43009;DHT22;28634;45.454;11.106;2022-09-03T08:49:57;27.10;41.20
43009;DHT22;28634;45.454;11.106;2022-09-03T08:52:40;27.20;41.80
43009;DHT22;28634;45.454;11.106;2022-09-03T08:55:46;27.30;42.30
43009;DHT22;28634;45.454;11.106;2022-09-03T08:58:19;27.30;40.20
43009;DHT22;28634;45.454;11.106;2022-09-03T09:01:04;27.30;39.90
43009;DHT22;28634;45.454;11.106;2022-09-03T09:03:35;27.40;40.70
43009;DHT22;28634;45.454;11.106;2022-09-03T09:17:36;27.20;43.00
43009;DHT22;28634;45.454;11.106;2022-09-03T09:22:44;27.00;42.80
43009;DHT22;28634;45.454;11.106;2022-09-03T09:25:18;26.90;43.10
43009;DHT22;28634;45.454;11.106;2022-09-03T09:27:58;26.90;43.10
43009;DHT22;28634;45.454;11.106;2022-09-03T09:30:31;26.90;43.30
43009;DHT22;28634;45.454;11.106;2022-09-03T09:32:58;27.00;43.20
43009;DHT22;28634;45.454;11.106;2022-09-03T09:35:26;27.10;42.60
43009;DHT22;28634;45.454;11.106;2022-09-03T09:37:56;26.90;42.50
43009;DHT22;28634;45.454;11.106;2022-09-03T09:40:38;26.90;42.90
43009;DHT22;28634;45.454;11.106;2022-09-03T09:43:13;27.00;42.60
43009;DHT22;28634;45.454;11.106;2022-09-03T09:45:45;27.20;42.40
43009;DHT22;28634;45.454;11.106;2022-09-03T09:48:27;27.30;42.40
43009;DHT22;28634;45.454;11.106;2022-09-03T09:51:12;27.40;42.10
43009;DHT22;28634;45.454;11.106;2022-09-03T09:53:40;27.50;41.80
43009;DHT22;28634;45.454;11.106;2022-09-03T09:56:07;27.60;42.00
43009;DHT22;28634;45.454;11.106;2022-09-03T09:58:35;27.70;42.20
43009;DHT22;28634;45.454;11.106;2022-09-03T10:01:21;27.70;41.80
43009;DHT22;28634;45.454;11.106;2022-09-03T10:03:54;27.70;42.50
43009;DHT22;28634;45.454;11.106;2022-09-03T10:06:23;27.70;40.90
43009;DHT22;28634;45.454;11.106;2022-09-03T10:09:13;27.80;42.50
43009;DHT22;28634;45.454;11.106;2022-09-03T10:11:52;27.90;41.50
43009;DHT22;28634;45.454;11.106;2022-09-03T10:14:28;27.90;41.70
43009;DHT22;28634;45.454;11.106;2022-09-03T10:20:39;28.00;41.90
43009;DHT22;28634;45.454;11.106;2022-09-03T10:25:56;28.00;41.40
43009;DHT22;28634;45.454;11.106;2022-09-03T10:28:28;28.00;41.90
43009;DHT22;28634;45.454;11.106;2022-09-03T10:34:22;28.20;41.70
43009;DHT22;28634;45.454;11.106;2022-09-03T10:45:18;28.30;42.00
43009;DHT22;28634;45.454;11.106;2022-09-03T10:53:44;28.40;42.80
43009;DHT22;28634;45.454;11.106;2022-09-03T10:56:31;28.50;41.70
43009;DHT22;28634;45.454;11.106;2022-09-03T11:02:27;28.60;42.10
43009;DHT22;28634;45.454;11.106;2022-09-03T11:05:20;28.60;41.20
43009;DHT22;28634;45.454;11.106;2022-09-03T11:08:16;28.60;42.20
43009;DHT22;28634;45.454;11.106;2022-09-03T11:10:51;28.50;42.10
43009;DHT22;28634;45.454;11.106;2022-09-03T11:13:30;28.60;41.80
43009;DHT22;28634;45.454;11.106;2022-09-03T11:16:07;28.60;41.90
43009;DHT22;28634;45.454;11.106;2022-09-03T11:18:49;28.60;41.30
43009;DHT22;28634;45.454;11.106;2022-09-03T11:21:21;28.60;40.40
43009;DHT22;28634;45.454;11.106;2022-09-03T11:24:14;28.70;40.70
43009;DHT22;28634;45.454;11.106;2022-09-03T11:26:44;28.60;42.20
43009;DHT22;28634;45.454;11.106;2022-09-03T11:29:31;28.40;42.90
43009;DHT22;28634;45.454;11.106;2022-09-03T11:32:18;28.40;42.60
43009;DHT22;28634;45.454;11.106;2022-09-03T11:34:49;28.60;42.60
43009;DHT22;28634;45.454;11.106;2022-09-03T11:42:39;28.80;42.10
43009;DHT22;28634;45.454;11.106;2022-09-03T11:47:53;28.90;40.90
43009;DHT22;28634;45.454;11.106;2022-09-03T11:50:32;29.00;40.90
43009;DHT22;28634;45.454;11.106;2022-09-03T11:53:23;28.90;41.00
43009;DHT22;28634;45.454;11.106;2022-09-03T11:55:55;29.00;41.10
43009;DHT22;28634;45.454;11.106;2022-09-03T11:58:29;29.00;42.00
43009;DHT22;28634;45.454;11.106;2022-09-03T12:00:57;28.90;42.20
43009;DHT22;28634;45.454;11.106;2022-09-03T12:03:27;28.90;42.70
43009;DHT22;28634;45.454;11.106;2022-09-03T12:06:19;28.90;42.60
43009;DHT22;28634;45.454;11.106;2022-09-03T12:09:11;28.70;42.90
43009;DHT22;28634;45.454;11.106;2022-09-03T12:17:03;29.00;41.90
43009;DHT22;28634;45.454;11.106;2022-09-03T12:19:51;29.00;43.30
43009;DHT22;28634;45.454;11.106;2022-09-03T12:22:22;29.10;42.60
43009;DHT22;28634;45.454;11.106;2022-09-03T12:24:51;29.20;42.00
43009;DHT22;28634;45.454;11.106;2022-09-03T12:27:23;29.30;41.10
43009;DHT22;28634;45.454;11.106;2022-09-03T12:30:00;29.40;41.00
43009;DHT22;28634;45.454;11.106;2022-09-03T12:32:34;29.30;41.80
43009;DHT22;28634;45.454;11.106;2022-09-03T12:35:13;29.30;41.80
43009;DHT22;28634;45.454;11.106;2022-09-03T12:38:01;29.40;40.90
43009;DHT22;28634;45.454;11.106;2022-09-03T12:40:34;29.30;41.50
43009;DHT22;28634;45.454;11.106;2022-09-03T12:43:26;29.30;41.70
43009;DHT22;28634;45.454;11.106;2022-09-03T12:46:14;29.30;42.00
43009;DHT22;28634;45.454;11.106;2022-09-03T12:48:55;29.30;40.90
43009;DHT22;28634;45.454;11.106;2022-09-03T12:51:43;29.30;42.10
43009;DHT22;28634;45.454;11.106;2022-09-03T12:54:20;29.20;41.40
43009;DHT22;28634;45.454;11.106;2022-09-03T12:56:54;29.10;41.70
43009;DHT22;28634;45.454;11.106;2022-09-03T12:59:23;29.10;41.10
43009;DHT22;28634;45.454;11.106;2022-09-03T13:01:55;29.00;41.70
43009;DHT22;28634;45.454;11.106;2022-09-03T13:04:31;28.90;42.70
43009;DHT22;28634;45.454;11.106;2022-09-03T13:09:35;28.70;43.00
43009;DHT22;28634;45.454;11.106;2022-09-03T13:12:03;28.70;43.80
43009;DHT22;28634;45.454;11.106;2022-09-03T13:14:47;28.80;44.80
43009;DHT22;28634;45.454;11.106;2022-09-03T13:20:13;29.00;42.90
43009;DHT22;28634;45.454;11.106;2022-09-03T13:25:59;29.00;43.20
43009;DHT22;28634;45.454;11.106;2022-09-03T13:28:50;29.00;43.30
43009;DHT22;28634;45.454;11.106;2022-09-03T13:34:36;28.90;43.90
43009;DHT22;28634;45.454;11.106;2022-09-03T13:37:22;28.90;43.20
43009;DHT22;28634;45.454;11.106;2022-09-03T13:39:57;28.90;43.60
43009;DHT22;28634;45.454;11.106;2022-09-03T13:43:04;28.80;43.60
43009;DHT22;28634;45.454;11.106;2022-09-03T13:46:06;28.80;43.70
43009;DHT22;28634;45.454;11.106;2022-09-03T13:48:39;28.80;43.30
43009;DHT22;28634;45.454;11.106;2022-09-03T13:51:49;28.80;42.80
43009;DHT22;28634;45.454;11.106;2022-09-03T13:54:34;28.80;42.50
43009;DHT22;28634;45.454;11.106;2022-09-03T13:57:36;28.70;43.00
43009;DHT22;28634;45.454;11.106;2022-09-03T14:00:12;28.70;43.50
43009;DHT22;28634;45.454;11.106;2022-09-03T14:02:53;28.80;43.70
43009;DHT22;28634;45.454;11.106;2022-09-03T14:13:05;29.10;43.50
43009;DHT22;28634;45.454;11.106;2022-09-03T14:15:54;29.10;43.00
43009;DHT22;28634;45.454;11.106;2022-09-03T14:18:35;29.10;42.90
43009;DHT22;28634;45.454;11.106;2022-09-03T14:21:30;29.00;43.60
43009;DHT22;28634;45.454;11.106;2022-09-03T14:24:12;29.00;43.80
43009;DHT22;28634;45.454;11.106;2022-09-03T14:26:58;29.00;44.10
43009;DHT22;28634;45.454;11.106;2022-09-03T14:29:31;29.00;45.10
43009;DHT22;28634;45.454;11.106;2022-09-03T14:32:51;28.90;44.60
43009;DHT22;28634;45.454;11.106;2022-09-03T14:35:22;28.90;44.20
43009;DHT22;28634;45.454;11.106;2022-09-03T14:40:51;28.80;45.10
43009;DHT22;28634;45.454;11.106;2022-09-03T14:48:43;28.70;46.60
43009;DHT22;28634;45.454;11.106;2022-09-03T14:51:38;28.70;47.40
43009;DHT22;28634;45.454;11.106;2022-09-03T14:57:36;28.80;47.80
43009;DHT22;28634;45.454;11.106;2022-09-03T15:00:17;28.80;48.40
43009;DHT22;28634;45.454;11.106;2022-09-03T15:03:21;28.70;48.20
43009;DHT22;28634;45.454;11.106;2022-09-03T15:08:57;28.60;48.40
43009;DHT22;28634;45.454;11.106;2022-09-03T15:11:32;28.50;48.20
43009;DHT22;28634;45.454;11.106;2022-09-03T15:14:16;28.50;48.30
43009;DHT22;28634;45.454;11.106;2022-09-03T15:16:58;28.60;48.80
43009;DHT22;28634;45.454;11.106;2022-09-03T15:22:27;28.60;48.60
43009;DHT22;28634;45.454;11.106;2022-09-03T15:25:30;28.60;48.60
43009;DHT22;28634;45.454;11.106;2022-09-03T15:31:33;28.60;48.30
43009;DHT22;28634;45.454;11.106;2022-09-03T15:34:48;28.60;49.30
43009;DHT22;28634;45.454;11.106;2022-09-03T15:40:30;28.70;49.00
43009;DHT22;28634;45.454;11.106;2022-09-03T15:46:11;28.70;49.00
43009;DHT22;28634;45.454;11.106;2022-09-03T15:57:09;28.70;49.10
43009;DHT22;28634;45.454;11.106;2022-09-03T15:59:41;28.70;48.90
43009;DHT22;28634;45.454;11.106;2022-09-03T16:02:27;28.60;49.50
43009;DHT22;28634;45.454;11.106;2022-09-03T16:10:15;28.60;49.00
43009;DHT22;28634;45.454;11.106;2022-09-03T16:13:23;28.50;48.70
43009;DHT22;28634;45.454;11.106;2022-09-03T16:32:16;28.40;49.60
43009;DHT22;28634;45.454;11.106;2022-09-03T16:35:22;28.40;50.10
43009;DHT22;28634;45.454;11.106;2022-09-03T16:43:38;28.40;49.20
43009;DHT22;28634;45.454;11.106;2022-09-03T16:46:29;28.40;49.50
43009;DHT22;28634;45.454;11.106;2022-09-03T16:49:21;28.40;49.10
43009;DHT22;28634;45.454;11.106;2022-09-03T17:12:13;28.20;49.80
43009;DHT22;28634;45.454;11.106;2022-09-03T17:15:03;28.20;49.90
43009;DHT22;28634;45.454;11.106;2022-09-03T17:29:50;28.20;51.50
43009;DHT22;28634;45.454;11.106;2022-09-03T17:37:43;28.30;51.20
43009;DHT22;28634;45.454;11.106;2022-09-03T17:45:52;28.30;51.10
43009;DHT22;28634;45.454;11.106;2022-09-03T17:48:49;28.40;51.00
43009;DHT22;28634;45.454;11.106;2022-09-03T17:51:30;28.50;51.00
43009;DHT22;28634;45.454;11.106;2022-09-03T17:54:14;28.40;51.20
43009;DHT22;28634;45.454;11.106;2022-09-03T17:56:48;28.40;51.50
43009;DHT22;28634;45.454;11.106;2022-09-03T18:02:21;28.40;51.40
43009;DHT22;28634;45.454;11.106;2022-09-03T18:07:38;28.30;52.00
43009;DHT22;28634;45.454;11.106;2022-09-03T18:15:52;28.20;52.30
43009;DHT22;28634;45.454;11.106;2022-09-03T18:18:29;28.20;52.60
43009;DHT22;28634;45.454;11.106;2022-09-03T18:21:00;28.30;52.10
43009;DHT22;28634;45.454;11.106;2022-09-03T18:24:27;28.30;52.00
43009;DHT22;28634;45.454;11.106;2022-09-03T18:27:39;28.20;52.00
43009;DHT22;28634;45.454;11.106;2022-09-03T18:30:26;28.20;52.30
43009;DHT22;28634;45.454;11.106;2022-09-03T18:33:13;28.20;52.00
43009;DHT22;28634;45.454;11.106;2022-09-03T18:36:02;28.20;51.90
43009;DHT22;28634;45.454;11.106;2022-09-03T18:38:49;28.20;52.00
43009;DHT22;28634;45.454;11.106;2022-09-03T18:54:01;28.00;52.70
43009;DHT22;28634;45.454;11.106;2022-09-03T18:56:51;28.00;52.70
43009;DHT22;28634;45.454;11.106;2022-09-03T19:10:47;28.50;50.80
43009;DHT22;28634;45.454;11.106;2022-09-03T19:15:50;28.60;50.80
43009;DHT22;28634;45.454;11.106;2022-09-03T19:19:14;28.60;50.60
43009;DHT22;28634;45.454;11.106;2022-09-03T19:22:10;28.70;50.70
43009;DHT22;28634;45.454;11.106;2022-09-03T19:25:08;28.70;50.40
43009;DHT22;28634;45.454;11.106;2022-09-03T19:28:28;28.70;50.20
43009;DHT22;28634;45.454;11.106;2022-09-03T19:34:34;28.70;50.40
43009;DHT22;28634;45.454;11.106;2022-09-03T19:37:57;28.40;50.80
43009;DHT22;28634;45.454;11.106;2022-09-03T19:46:59;27.70;52.60
43009;DHT22;28634;45.454;11.106;2022-09-03T19:50:16;27.70;53.00
43009;DHT22;28634;45.454;11.106;2022-09-03T19:53:17;27.60;53.70
43009;DHT22;28634;45.454;11.106;2022-09-03T19:56:22;27.20;54.50
43009;DHT22;28634;45.454;11.106;2022-09-03T19:59:19;27.10;55.10
43009;DHT22;28634;45.454;11.106;2022-09-03T20:02:05;27.10;55.40
43009;DHT22;28634;45.454;11.106;2022-09-03T20:07:37;27.00;54.90
43009;DHT22;28634;45.454;11.106;2022-09-03T20:10:27;27.00;55.00
43009;DHT22;28634;45.454;11.106;2022-09-03T20:13:04;27.00;55.10
43009;DHT22;28634;45.454;11.106;2022-09-03T20:18:13;27.10;55.10
43009;DHT22;28634;45.454;11.106;2022-09-03T20:21:09;27.00;55.00
43009;DHT22;28634;45.454;11.106;2022-09-03T20:23:58;27.00;55.10
43009;DHT22;28634;45.454;11.106;2022-09-03T20:32:12;27.00;55.10
43009;DHT22;28634;45.454;11.106;2022-09-03T20:35:07;27.00;55.20
43009;DHT22;28634;45.454;11.106;2022-09-03T20:43:50;26.80;55.80
43009;DHT22;28634;45.454;11.106;2022-09-03T20:46:35;26.80;55.80
43009;DHT22;28634;45.454;11.106;2022-09-03T20:55:10;26.70;56.10
43009;DHT22;28634;45.454;11.106;2022-09-03T20:57:45;26.70;56.10
43009;DHT22;28634;45.454;11.106;2022-09-03T21:00:16;26.60;56.30
43009;DHT22;28634;45.454;11.106;2022-09-03T21:11:14;26.60;56.50
43009;DHT22;28634;45.454;11.106;2022-09-03T21:16:40;26.50;56.70
43009;DHT22;28634;45.454;11.106;2022-09-03T21:19:36;26.50;56.70
43009;DHT22;28634;45.454;11.106;2022-09-03T21:24:55;26.50;56.80
43009;DHT22;28634;45.454;11.106;2022-09-03T21:27:40;26.40;56.90
43009;DHT22;28634;45.454;11.106;2022-09-03T21:30:13;26.40;56.90
43009;DHT22;28634;45.454;11.106;2022-09-03T21:32:51;26.60;56.30
43009;DHT22;28634;45.454;11.106;2022-09-03T21:35:32;26.60;56.40